createdAt,value
2019-04-25T00:02:29.175Z,76.60
2019-04-25T00:05:33.696Z,76.40
2019-04-25T00:08:38.788Z,76.10
2019-04-25T00:11:46.618Z,76.40
2019-04-25T00:14:49.474Z,76.40
2019-04-25T00:17:53.742Z,76.40
2019-04-25T00:21:02.634Z,76.70
2019-04-25T00:24:13.607Z,76.80
2019-04-25T00:27:17.994Z,76.90
2019-04-25T00:30:23.931Z,76.70
2019-04-25T00:33:28.139Z,76.90
2019-04-25T00:36:32.388Z,76.80
2019-04-25T00:39:36.615Z,76.80
2019-04-25T00:42:42.805Z,76.70
2019-04-25T00:45:47.474Z,76.60
2019-04-25T00:48:52.669Z,76.60
2019-04-25T00:51:57.244Z,76.50
2019-04-25T00:55:01.950Z,76.40
2019-04-25T00:58:12.280Z,76.80
2019-04-25T01:01:32.225Z,76.70
2019-04-25T01:04:36.503Z,76.80
2019-04-25T01:07:42.111Z,76.60
2019-04-25T01:10:46.552Z,76.50
2019-04-25T01:13:52.243Z,76.30
2019-04-25T01:16:56.946Z,76.60
2019-04-25T01:20:01.288Z,76.80
2019-04-25T01:23:05.581Z,76.60
2019-04-25T01:26:10.134Z,76.40
2019-04-25T01:29:14.937Z,76.50
2019-04-25T01:32:25.546Z,76.50
2019-04-25T01:35:39.503Z,76.50
2019-04-25T01:39:05.559Z,76.40
2019-04-25T01:42:28.808Z,76.30
2019-04-25T01:45:33.963Z,76.20
2019-04-25T01:48:38.275Z,76.30
2019-04-25T01:51:43.693Z,76.20
2019-04-25T01:54:49.177Z,76.40
2019-04-25T01:57:54.806Z,76.30
2019-04-25T02:00:59.585Z,76.50
2019-04-25T02:04:04.424Z,76.40
2019-04-25T02:07:09.433Z,76.20
2019-04-25T02:10:14.007Z,76.30
2019-04-25T02:13:20.106Z,76.40
2019-04-25T02:16:24.582Z,76.80
2019-04-25T02:19:28.955Z,76.70
2019-04-25T02:22:33.923Z,76.70
2019-04-25T02:25:39.686Z,76.90
2019-04-25T02:28:43.958Z,77.00
2019-04-25T02:31:48.335Z,76.80
2019-04-25T02:34:55.303Z,77.10
2019-04-25T02:38:01.304Z,76.90
2019-04-25T02:41:08.351Z,77.10
2019-04-25T02:44:10.579Z,77.00
2019-04-25T02:47:34.493Z,76.90
2019-04-25T02:50:48.439Z,76.90
2019-04-25T02:53:53.758Z,76.90
2019-04-25T02:56:58.428Z,76.80
2019-04-25T03:00:06.698Z,76.80
2019-04-25T03:03:09.231Z,77.10
2019-04-25T03:06:15.010Z,76.80
2019-04-25T03:09:19.511Z,77.00
2019-04-25T03:12:30.706Z,77.00
2019-04-25T03:15:29.710Z,76.90
2019-04-25T03:18:36.801Z,77.00
2019-04-25T03:21:44.987Z,78.10
2019-04-25T03:24:48.332Z,78.20
2019-04-25T03:27:54.065Z,78.20
2019-04-25T03:30:59.860Z,78.90
2019-04-25T03:34:10.219Z,78.30
2019-04-25T03:37:13.616Z,78.30
2019-04-25T03:40:17.909Z,78.30
2019-04-25T03:43:23.265Z,78.30
2019-04-25T03:46:27.650Z,78.50
2019-04-25T03:49:31.834Z,78.50
2019-04-25T03:52:36.203Z,78.50
2019-04-25T03:55:40.661Z,78.80
2019-04-25T03:58:44.879Z,78.80
2019-04-25T04:01:49.079Z,79.00
2019-04-25T04:04:53.863Z,79.20
2019-04-25T04:07:58.200Z,79.10
2019-04-25T04:11:04.998Z,79.40
2019-04-25T04:14:08.347Z,79.80
2019-04-25T04:17:33.902Z,80.50
2019-04-25T04:20:56.861Z,79.90
2019-04-25T04:24:15.211Z,78.90
2019-04-25T04:27:20.246Z,79.20
2019-04-25T04:30:24.546Z,79.50
2019-04-25T04:33:34.012Z,80.10
2019-04-25T04:36:36.867Z,80.00
2019-04-25T04:39:41.127Z,79.80
2019-04-25T04:42:45.438Z,79.70
2019-04-25T04:45:49.679Z,79.60
2019-04-25T04:48:55.300Z,80.10
2019-04-25T04:51:59.552Z,81.50
2019-04-25T04:55:08.334Z,81.90
2019-04-25T04:58:10.375Z,82.90
2019-04-25T05:01:17.209Z,83.20
2019-04-25T05:04:26.883Z,83.30
2019-04-25T05:07:39.678Z,82.60
2019-04-25T05:10:43.851Z,82.60
2019-04-25T05:13:48.077Z,84.50
2019-04-25T05:16:53.274Z,84.60
2019-04-25T05:19:57.705Z,85.20
2019-04-25T05:23:03.146Z,85.00
2019-04-25T05:26:07.467Z,84.90
2019-04-25T05:29:11.720Z,85.60
2019-04-25T05:32:17.269Z,85.10
2019-04-25T05:35:22.530Z,85.10
2019-04-25T05:38:27.871Z,85.60
2019-04-25T05:41:38.062Z,87.00
2019-04-25T05:44:43.994Z,86.60
2019-04-25T05:47:48.438Z,87.00
2019-04-25T05:50:53.762Z,87.40
2019-04-25T05:53:58.062Z,87.20
2019-04-25T05:57:03.688Z,86.80
2019-04-25T06:00:09.645Z,86.60
2019-04-25T06:03:13.938Z,86.70
2019-04-25T06:06:19.195Z,86.80
2019-04-25T06:09:33.761Z,86.50
2019-04-25T06:13:03.657Z,86.50
2019-04-25T06:16:28.583Z,86.30
2019-04-25T06:19:39.923Z,86.40
2019-04-25T06:23:09.174Z,85.80
2019-04-25T06:26:22.607Z,85.30
2019-04-25T06:29:21.805Z,85.20
2019-04-25T06:32:26.959Z,85.60
2019-04-25T06:35:31.191Z,85.00
2019-04-25T06:38:35.549Z,84.80
2019-04-25T06:41:39.974Z,84.60
2019-04-25T06:44:50.828Z,84.90
2019-04-25T06:48:29.325Z,85.20
2019-04-25T06:51:50.162Z,84.60
2019-04-25T06:54:54.702Z,84.30
2019-04-25T06:58:09.097Z,83.40
2019-04-25T07:01:05.083Z,82.50
2019-04-25T07:04:09.274Z,82.40
2019-04-25T07:07:14.979Z,81.70
2019-04-25T07:10:19.306Z,81.50
2019-04-25T07:13:24.675Z,81.30
2019-04-25T07:16:29.505Z,80.20
2019-04-25T07:19:34.380Z,79.40
2019-04-25T07:22:39.886Z,78.50
2019-04-25T07:25:50.011Z,77.70
2019-04-25T07:29:08.119Z,77.30
2019-04-25T07:32:18.630Z,77.00
2019-04-25T07:35:23.338Z,76.40
2019-04-25T07:38:27.705Z,76.20
2019-04-25T07:41:32.082Z,75.60
2019-04-25T07:44:49.286Z,74.80
2019-04-25T07:47:43.987Z,74.40
2019-04-25T07:50:48.491Z,73.50
2019-04-25T07:53:53.498Z,73.30
2019-04-25T07:56:58.119Z,72.80
2019-04-25T08:00:03.274Z,72.60
2019-04-25T08:03:08.727Z,72.10
2019-04-25T08:06:14.016Z,71.80
2019-04-25T08:09:18.475Z,71.10
2019-04-25T08:12:22.815Z,71.50
2019-04-25T08:15:49.501Z,71.40
2019-04-25T08:18:54.067Z,71.30
2019-04-25T08:21:59.057Z,70.30
2019-04-25T08:25:04.841Z,69.10
2019-04-25T08:28:09.135Z,69.00
2019-04-25T08:31:14.713Z,68.30
2019-04-25T08:34:19.078Z,67.10
2019-04-25T08:37:24.114Z,66.50
2019-04-25T08:40:32.366Z,65.70
2019-04-25T08:43:39.088Z,64.60
2019-04-25T08:46:44.185Z,64.00
2019-04-25T08:50:00.251Z,63.20
2019-04-25T08:53:04.756Z,62.70
2019-04-25T08:56:14.963Z,62.60
2019-04-25T08:59:56.979Z,62.10
2019-04-25T09:03:05.953Z,61.90
2019-04-25T09:06:10.779Z,61.20
2019-04-25T09:09:15.139Z,60.70
2019-04-25T09:12:19.493Z,60.30
2019-04-25T09:15:24.251Z,60.20
2019-04-25T09:18:28.618Z,59.20
2019-04-25T09:21:36.580Z,59.20
2019-04-25T09:24:42.045Z,58.00
2019-04-25T09:27:47.064Z,57.90
2019-04-25T09:30:51.555Z,57.80
2019-04-25T09:33:56.714Z,57.60
2019-04-25T09:37:01.006Z,58.10
2019-04-25T09:40:15.947Z,57.20
2019-04-25T09:43:20.602Z,57.30
2019-04-25T09:46:30.178Z,57.00
2019-04-25T09:49:37.990Z,57.10
2019-04-25T09:52:44.381Z,56.30
2019-04-25T09:56:06.588Z,55.60
2019-04-25T09:59:26.690Z,54.90
2019-04-25T10:02:22.954Z,54.90
2019-04-25T10:05:27.380Z,54.60
2019-04-25T10:08:31.962Z,54.10
2019-04-25T10:11:36.240Z,53.90
2019-04-25T10:15:20.426Z,54.20
2019-04-25T10:18:24.682Z,54.10
2019-04-25T10:21:29.074Z,53.70
2019-04-25T10:24:33.807Z,53.70
2019-04-25T10:27:39.568Z,52.90
2019-04-25T10:30:43.811Z,52.90
2019-04-25T10:33:48.671Z,52.90
2019-04-25T10:36:53.292Z,52.60
2019-04-25T10:39:57.677Z,52.00
2019-04-25T10:43:03.987Z,52.50
2019-04-25T10:46:10.054Z,52.10
2019-04-25T10:49:14.639Z,51.60
2019-04-25T10:52:19.064Z,51.40
2019-04-25T10:55:23.480Z,51.30
2019-04-25T10:58:27.792Z,51.20
2019-04-25T11:01:33.695Z,51.30
2019-04-25T11:04:44.569Z,51.50
2019-04-25T11:07:49.370Z,50.40
2019-04-25T11:10:54.932Z,49.70
2019-04-25T11:13:59.868Z,49.50
2019-04-25T11:17:04.283Z,49.20
2019-04-25T11:20:08.703Z,48.70
2019-04-25T11:23:15.330Z,48.30
2019-04-25T11:26:19.673Z,48.00
2019-04-25T11:29:24.251Z,47.90
2019-04-25T11:32:28.795Z,47.80
2019-04-25T11:35:34.318Z,47.30
2019-04-25T11:39:00.661Z,46.40
2019-04-25T11:42:14.932Z,46.20
2019-04-25T11:45:19.398Z,46.80
2019-04-25T11:48:23.887Z,45.40
2019-04-25T11:51:28.346Z,45.40
2019-04-25T11:54:33.008Z,45.30
2019-04-25T11:57:37.463Z,45.60
2019-04-25T12:00:42.038Z,45.40
2019-04-25T12:03:48.907Z,45.10
2019-04-25T12:06:53.387Z,45.20
2019-04-25T12:09:57.563Z,44.80
2019-04-25T12:13:01.891Z,44.50
2019-04-25T12:16:08.736Z,44.20
2019-04-25T12:19:13.925Z,43.90
2019-04-25T12:22:18.372Z,43.70
2019-04-25T12:25:23.710Z,43.70
2019-04-25T12:28:28.146Z,43.70
2019-04-25T12:31:34.100Z,43.00
2019-04-25T12:34:38.495Z,43.00
2019-04-25T12:37:44.211Z,43.00
2019-04-25T12:40:48.872Z,42.10
2019-04-25T12:44:12.104Z,42.00
2019-04-25T12:47:19.628Z,41.60
2019-04-25T12:50:24.722Z,41.10
2019-04-25T12:53:29.067Z,40.60
2019-04-25T12:56:34.133Z,41.30
2019-04-25T12:59:38.482Z,40.10
2019-04-25T13:02:44.713Z,39.90
2019-04-25T13:05:49.100Z,39.80
2019-04-25T13:08:54.590Z,39.70
2019-04-25T13:11:58.926Z,40.10
2019-04-25T13:15:03.316Z,39.60
2019-04-25T13:18:07.637Z,39.40
2019-04-25T13:21:14.557Z,39.40
2019-04-25T13:24:18.933Z,39.30
2019-04-25T13:27:37.359Z,39.70
2019-04-25T13:31:14.816Z,39.40
2019-04-25T13:34:35.975Z,39.40
2019-04-25T13:37:34.175Z,39.20
2019-04-25T13:40:38.466Z,39.20
2019-04-25T13:43:42.640Z,39.30
2019-04-25T13:46:46.855Z,39.60
2019-04-25T13:49:51.186Z,38.90
2019-04-25T13:52:55.610Z,38.90
2019-04-25T13:55:59.779Z,39.00
2019-04-25T13:59:04.427Z,38.30
2019-04-25T14:02:09.452Z,38.30
2019-04-25T14:05:14.673Z,38.50
2019-04-25T14:08:19.054Z,38.40
2019-04-25T14:11:24.134Z,38.60
2019-04-25T14:14:28.673Z,38.60
2019-04-25T14:17:45.000Z,38.30
2019-04-25T14:20:53.813Z,38.60
2019-04-25T14:23:58.174Z,38.60
2019-04-25T14:27:03.650Z,38.50
2019-04-25T14:30:10.327Z,38.60
2019-04-25T14:33:14.602Z,38.50
2019-04-25T14:36:19.069Z,38.50
2019-04-25T14:39:23.717Z,38.60
2019-04-25T14:42:28.598Z,38.80
2019-04-25T14:45:44.037Z,38.80
2019-04-25T14:48:39.053Z,38.60
2019-04-25T14:51:43.636Z,39.10
2019-04-25T14:54:56.609Z,39.30
2019-04-25T14:58:01.549Z,39.50
2019-04-25T15:01:06.790Z,39.40
2019-04-25T15:04:11.578Z,39.50
2019-04-25T15:07:15.947Z,39.30
2019-04-25T15:10:20.155Z,39.30
2019-04-25T15:13:27.835Z,39.40
2019-04-25T15:16:32.182Z,39.40
2019-04-25T15:19:36.629Z,38.80
2019-04-25T15:22:41.008Z,39.00
2019-04-25T15:25:45.365Z,39.30
2019-04-25T15:28:49.559Z,39.10
2019-04-25T15:31:56.108Z,38.80
2019-04-25T15:35:00.118Z,38.80
2019-04-25T15:38:14.666Z,39.20
2019-04-25T15:41:29.327Z,39.50
2019-04-25T15:44:59.655Z,38.20
2019-04-25T15:48:05.706Z,38.10
2019-04-25T15:51:10.017Z,38.00
2019-04-25T15:54:14.563Z,39.30
2019-04-25T15:57:18.865Z,39.80
2019-04-25T16:00:30.735Z,40.20
2019-04-25T16:03:35.273Z,40.50
2019-04-25T16:06:39.647Z,40.20
2019-04-25T16:09:44.024Z,40.70
2019-04-25T16:12:48.398Z,40.90
2019-04-25T16:15:52.707Z,40.50
2019-04-25T16:18:57.141Z,40.50
2019-04-25T16:22:01.527Z,41.40
2019-04-25T16:25:06.640Z,40.30
2019-04-25T16:28:10.936Z,40.40
2019-04-25T16:31:18.571Z,40.70
2019-04-25T16:34:22.876Z,40.80
2019-04-25T16:37:27.955Z,41.30
2019-04-25T16:40:34.586Z,40.70
2019-04-25T16:43:43.182Z,40.90
2019-04-25T16:46:47.780Z,41.80
2019-04-25T16:49:52.478Z,40.70
2019-04-25T16:52:56.854Z,42.60
2019-04-25T16:56:01.398Z,43.70
2019-04-25T16:59:05.935Z,42.50
2019-04-25T17:02:10.403Z,42.50
2019-04-25T17:05:15.043Z,42.30
2019-04-25T17:08:19.405Z,43.00
2019-04-25T17:11:23.778Z,43.10
2019-04-25T17:14:51.933Z,43.80
2019-04-25T17:18:04.198Z,44.40
2019-04-25T17:21:11.590Z,45.30
2019-04-25T17:24:15.167Z,45.70
2019-04-25T17:27:19.914Z,46.30
2019-04-25T17:30:26.060Z,47.40
2019-04-25T17:33:42.860Z,48.00
2019-04-25T17:36:53.283Z,48.80
2019-04-25T17:40:00.964Z,49.60
2019-04-25T17:43:11.355Z,50.20
2019-04-25T17:46:13.288Z,50.60
2019-04-25T17:49:17.703Z,51.40
2019-04-25T17:52:26.375Z,51.60
2019-04-25T17:55:30.435Z,52.00
2019-04-25T17:58:35.404Z,52.60
2019-04-25T18:01:40.110Z,53.00
2019-04-25T18:04:44.619Z,53.50
2019-04-25T18:07:49.099Z,53.80
2019-04-25T18:10:53.690Z,54.30
2019-04-25T18:13:58.100Z,54.70
2019-04-25T18:17:02.411Z,55.30
2019-04-25T18:20:15.031Z,55.90
2019-04-25T18:23:37.292Z,56.30
2019-04-25T18:26:48.950Z,56.70
2019-04-25T18:29:53.169Z,57.10
2019-04-25T18:33:10.963Z,57.40
2019-04-25T18:36:47.247Z,57.70
2019-04-25T18:39:58.282Z,58.00
2019-04-25T18:43:13.883Z,58.30
2019-04-25T18:46:26.418Z,58.50
2019-04-25T18:49:30.810Z,58.80
2019-04-25T18:52:54.160Z,59.20
2019-04-25T18:56:04.527Z,59.50
2019-04-25T18:59:33.855Z,59.60
2019-04-25T19:03:00.311Z,59.90
2019-04-25T19:06:09.227Z,60.00
2019-04-25T19:09:17.000Z,60.60
2019-04-25T19:12:21.323Z,60.70
2019-04-25T19:15:25.687Z,61.20
2019-04-25T19:18:30.078Z,62.50
2019-04-25T19:21:34.463Z,61.70
2019-04-25T19:24:45.028Z,61.90
2019-04-25T19:27:51.079Z,62.10
2019-04-25T19:30:56.029Z,63.40
2019-04-25T19:34:03.536Z,62.70
2019-04-25T19:37:08.300Z,62.80
2019-04-25T19:40:30.389Z,63.10
2019-04-25T19:43:59.896Z,63.40
2019-04-25T19:47:04.621Z,63.80
2019-04-25T19:50:09.283Z,63.90
2019-04-25T19:53:15.044Z,63.70
2019-04-25T19:56:19.653Z,64.10
2019-04-25T19:59:24.027Z,64.20
2019-04-25T20:02:46.994Z,64.10
2019-04-25T20:06:12.820Z,64.40
2019-04-25T20:09:40.895Z,64.40
2019-04-25T20:12:50.327Z,64.70
2019-04-25T20:15:53.849Z,64.50
2019-04-25T20:18:58.240Z,65.00
2019-04-25T20:22:02.564Z,65.00
2019-04-25T20:25:07.329Z,65.20
2019-04-25T20:28:11.739Z,65.30
2019-04-25T20:31:16.046Z,65.50
2019-04-25T20:34:20.357Z,65.80
2019-04-25T20:37:24.648Z,65.80
2019-04-25T20:40:29.069Z,66.10
2019-04-25T20:43:33.406Z,65.90
2019-04-25T20:46:37.851Z,66.00
2019-04-25T20:49:42.222Z,66.30
2019-04-25T20:52:47.505Z,66.40
2019-04-25T20:55:52.841Z,66.40
2019-04-25T20:58:57.702Z,66.50
2019-04-25T21:02:02.130Z,66.80
2019-04-25T21:05:06.492Z,67.20
2019-04-25T21:08:10.787Z,66.80
2019-04-25T21:11:15.389Z,67.00
2019-04-25T21:14:28.852Z,67.20
2019-04-25T21:17:45.638Z,67.40
2019-04-25T21:20:50.683Z,67.80
2019-04-25T21:23:56.968Z,67.70
2019-04-25T21:27:01.369Z,67.90
2019-04-25T21:30:06.875Z,68.10
2019-04-25T21:33:11.143Z,68.30
2019-04-25T21:36:15.734Z,68.50
2019-04-25T21:39:32.549Z,68.40
2019-04-25T21:42:51.567Z,68.60
2019-04-25T21:45:56.683Z,68.90
2019-04-25T21:49:01.290Z,69.60
2019-04-25T21:52:05.691Z,69.20
2019-04-25T21:55:10.197Z,69.00
2019-04-25T21:58:14.855Z,69.30
2019-04-25T22:01:23.522Z,69.50
2019-04-25T22:04:38.220Z,69.40
2019-04-25T22:07:35.541Z,69.40
2019-04-25T22:10:40.350Z,69.60
2019-04-25T22:13:44.838Z,70.60
2019-04-25T22:16:49.311Z,69.90
2019-04-25T22:19:53.964Z,69.90
2019-04-25T22:22:58.614Z,70.00
2019-04-25T22:26:03.004Z,69.80
2019-04-25T22:29:07.768Z,70.00
2019-04-25T22:32:31.139Z,70.70
2019-04-25T22:35:51.131Z,70.00
2019-04-25T22:39:14.453Z,70.20
2019-04-25T22:42:19.135Z,70.40
2019-04-25T22:45:23.652Z,70.90
2019-04-25T22:49:00.038Z,70.90
2019-04-25T22:52:04.995Z,72.00
2019-04-25T22:55:11.508Z,71.30
2019-04-25T22:58:16.287Z,71.50
2019-04-25T23:01:38.137Z,71.60
2019-04-25T23:05:09.299Z,71.60
2019-04-25T23:08:07.933Z,71.70
2019-04-25T23:11:12.504Z,71.90
2019-04-25T23:14:17.074Z,72.10
2019-04-25T23:17:21.443Z,72.10
2019-04-25T23:20:25.910Z,72.20
2019-04-25T23:23:32.332Z,72.20
2019-04-25T23:26:44.641Z,72.50
2019-04-25T23:29:49.050Z,72.40
2019-04-25T23:32:53.575Z,72.40
2019-04-25T23:35:57.856Z,73.40
2019-04-25T23:39:02.194Z,72.50
2019-04-25T23:42:07.284Z,72.50
2019-04-25T23:45:12.407Z,72.80
2019-04-25T23:48:16.734Z,72.70
2019-04-25T23:51:21.002Z,72.70
2019-04-25T23:54:25.491Z,72.80
2019-04-25T23:57:30.046Z,72.80
